CheckWX is a tool to help pilots better visualize weather data.  It is not intended as a substitute for an official pre-flight weather briefing.

17:55:06 UTC

KFLY METAR
Meadow Lake Airport
Colorado Springs, Colorado, USA
Current

20 mins ago

KFLY 211735Z AUTO 13006G14KT 10SM CLR 26/12 A3031 RMK AO2 T02560118
Observed
Jul-21 @ 17:35 UTC
Wind
  • 130° at 6 KTS
  • Gusting to 14 KTS
Visibility
10 SM
Flight Rules
VFR
Cloud Levels
  • Clear skies
Temperature
26°C / 79°F
Dewpoint
12°C / 54°F
Humidity
42%
Altimeter
30.31" Hg
Pressure
1026.42 hPa
Previous

40 mins ago

KFLY 211715Z AUTO 10008KT 10SM CLR 25/12 A3031 RMK AO2 T02460122
Observed
Jul-21 @ 17:15 UTC
Wind
  • 100° at 8 KTS
Visibility
10 SM
Flight Rules
VFR
Cloud Levels
  • Clear skies
Temperature
25°C / 77°F
Dewpoint
12°C / 54°F
Humidity
44%
Altimeter
30.31" Hg
Pressure
1026.42 hPa
Previous

60 mins ago

KFLY 211655Z AUTO 17005KT 10SM CLR 23/12 A3031 RMK AO2 T02340121
Observed
Jul-21 @ 16:55 UTC
Wind
  • 170° at 5 KTS
Visibility
10 SM
Flight Rules
VFR
Cloud Levels
  • Clear skies
Temperature
23°C / 73°F
Dewpoint
12°C / 54°F
Humidity
50%
Altimeter
30.31" Hg
Pressure
1026.42 hPa